Time;durP1;ratioP1;P1;durP2;ratioP2;P2;SDS_P1;SDS_P2;PMS_P1;PMS_P2;Temp;Humidity;BMP_temperature;BMP_pressure;BME280_temperature;BME280_humidity;BME280_pressure;Samples;Min_cycle;Max_cycle;Signal;HPM_P1;HPM_P2
2021/06/28 00:01:57;;;;;;;4.10;3.30;;;;;;;;;;5089862;28;20028;-64
2021/06/28 00:04:23;;;;;;;4.95;3.38;;;;;;;;;;5086166;28;20028;-68
2021/06/28 00:06:49;;;;;;;4.57;3.47;;;;;;;;;;5091099;28;20135;-71
2021/06/28 00:09:16;;;;;;;4.82;3.45;;;;;;;;;;5089788;28;20461;-65
2021/06/28 00:11:42;;;;;;;3.40;3.10;;;;;;;;;;5094356;28;20024;-66
2021/06/28 00:14:08;;;;;;;4.57;3.10;;;;;;;;;;5091586;28;20020;-68
2021/06/28 00:16:34;;;;;;;3.63;2.90;;;;;;;;;;5092065;28;20031;-65
2021/06/28 00:19:02;;;;;;;4.75;3.10;;;;;;;;;;5089312;28;20393;-70
2021/06/28 00:21:29;;;;;;;6.63;3.20;;;;;;;;;;5089266;28;20468;-70
2021/06/28 00:23:55;;;;;;;4.50;3.10;;;;;;;;;;5103017;28;20073;-66
2021/06/28 00:26:21;;;;;;;5.53;3.30;;;;;;;;;;5088649;28;20035;-63
2021/06/28 00:28:47;;;;;;;4.05;3.40;;;;;;;;;;5091956;28;20028;-65
2021/06/28 00:31:13;;;;;;;4.30;3.40;;;;;;;;;;5089899;28;20028;-67
2021/06/28 00:33:39;;;;;;;4.25;3.38;;;;;;;;;;5101056;28;20024;-66
2021/06/28 00:36:05;;;;;;;9.90;3.30;;;;;;;;;;5096082;28;20024;-65
2021/06/28 00:38:31;;;;;;;4.45;3.50;;;;;;;;;;5086141;28;20040;-64
2021/06/28 00:40:58;;;;;;;3.90;3.38;;;;;;;;;;5088363;28;20024;-66
2021/06/28 00:43:24;;;;;;;4.75;3.42;;;;;;;;;;5088941;28;20028;-71
2021/06/28 00:45:50;;;;;;;6.80;3.53;;;;;;;;;;5085777;28;20105;-65
2021/06/28 00:48:17;;;;;;;4.72;3.50;;;;;;;;;;5089983;28;20028;-64
2021/06/28 00:50:45;;;;;;;5.50;3.42;;;;;;;;;;5092855;28;20035;-65
2021/06/28 00:53:13;;;;;;;4.60;3.13;;;;;;;;;;5093108;28;20071;-65
2021/06/28 00:55:40;;;;;;;4.75;3.50;;;;;;;;;;5103423;28;20024;-66
2021/06/28 00:58:06;;;;;;;4.47;3.60;;;;;;;;;;5097868;28;20117;-70
2021/06/28 01:00:32;;;;;;;4.95;3.33;;;;;;;;;;5094418;28;20032;-66
2021/06/28 01:02:59;;;;;;;5.20;3.38;;;;;;;;;;5092478;28;20020;-64
2021/06/28 01:05:27;;;;;;;3.28;2.97;;;;;;;;;;5093288;28;20489;-68
2021/06/28 01:07:53;;;;;;;7.07;3.65;;;;;;;;;;5094611;28;20067;-64
2021/06/28 01:10:20;;;;;;;7.78;3.30;;;;;;;;;;5091140;28;20024;-68
2021/06/28 01:12:47;;;;;;;4.80;3.53;;;;;;;;;;5092557;28;20024;-66
2021/06/28 01:15:14;;;;;;;5.70;3.65;;;;;;;;;;5092743;28;20077;-64
2021/06/28 01:17:40;;;;;;;4.50;3.40;;;;;;;;;;5093068;28;20090;-67
2021/06/28 01:20:10;;;;;;;3.90;3.47;;;;;;;;;;5093584;28;20023;-65
2021/06/28 01:22:37;;;;;;;5.32;3.45;;;;;;;;;;5093591;28;20435;-65
2021/06/28 01:25:04;;;;;;;3.65;3.20;;;;;;;;;;5092907;28;20051;-65
2021/06/28 01:27:30;;;;;;;4.47;3.30;;;;;;;;;;5092328;28;20039;-64
2021/06/28 01:29:56;;;;;;;4.00;3.50;;;;;;;;;;5091818;28;20469;-65
2021/06/28 01:32:23;;;;;;;3.85;3.30;;;;;;;;;;5093500;28;20043;-64
2021/06/28 01:34:49;;;;;;;4.15;3.40;;;;;;;;;;5092604;28;20157;-68
2021/06/28 01:37:26;;;;;;;6.97;3.30;;;;;;;;;;5093344;28;20044;-65
2021/06/28 01:39:55;;;;;;;4.53;3.38;;;;;;;;;;5089184;28;20027;-67
2021/06/28 01:42:21;;;;;;;5.95;3.58;;;;;;;;;;5094297;28;20061;-64
2021/06/28 01:44:47;;;;;;;3.95;3.38;;;;;;;;;;5083260;28;20428;-67
2021/06/28 01:47:14;;;;;;;4.13;3.40;;;;;;;;;;5092708;28;20027;-66
2021/06/28 01:49:40;;;;;;;4.05;3.28;;;;;;;;;;5089472;28;20024;-65
2021/06/28 01:52:06;;;;;;;4.55;3.40;;;;;;;;;;5094206;28;20024;-65
2021/06/28 01:54:33;;;;;;;4.53;3.28;;;;;;;;;;5091647;28;20066;-69
2021/06/28 01:56:59;;;;;;;5.35;3.30;;;;;;;;;;5094390;28;20469;-64
2021/06/28 01:59:28;;;;;;;3.60;3.30;;;;;;;;;;5095303;28;20032;-65
2021/06/28 02:01:54;;;;;;;4.30;3.30;;;;;;;;;;5091075;28;20027;-70
2021/06/28 02:04:20;;;;;;;6.97;3.30;;;;;;;;;;5091620;28;20039;-65
2021/06/28 02:06:47;;;;;;;5.00;3.20;;;;;;;;;;5102528;28;20574;-65
2021/06/28 02:09:13;;;;;;;5.13;3.08;;;;;;;;;;5093947;28;20062;-68
2021/06/28 02:11:39;;;;;;;4.97;3.40;;;;;;;;;;5093684;28;20466;-64
2021/06/28 02:14:05;;;;;;;4.05;3.13;;;;;;;;;;5091787;28;20551;-70
2021/06/28 02:16:32;;;;;;;4.45;3.40;;;;;;;;;;5092204;28;20024;-65
2021/06/28 02:18:58;;;;;;;5.03;3.42;;;;;;;;;;5091970;28;20255;-69
2021/06/28 02:21:24;;;;;;;5.28;3.50;;;;;;;;;;5088466;28;20028;-65
2021/06/28 02:23:50;;;;;;;4.18;3.30;;;;;;;;;;5092828;28;20450;-66
2021/06/28 02:26:16;;;;;;;6.07;3.28;;;;;;;;;;5090221;28;20042;-64
2021/06/28 02:28:43;;;;;;;5.47;3.97;;;;;;;;;;5093118;28;20020;-71
2021/06/28 02:31:11;;;;;;;7.03;3.92;;;;;;;;;;5091237;28;20020;-64
2021/06/28 02:33:38;;;;;;;6.45;3.88;;;;;;;;;;5083873;28;20028;-66
2021/06/28 02:36:04;;;;;;;6.78;3.90;;;;;;;;;;5090667;28;20025;-64
2021/06/28 02:38:30;;;;;;;5.35;3.60;;;;;;;;;;5090937;28;20101;-65
2021/06/28 02:40:56;;;;;;;6.05;3.85;;;;;;;;;;5091027;28;20032;-66
2021/06/28 02:43:23;;;;;;;6.18;3.70;;;;;;;;;;5091019;28;20024;-64
2021/06/28 02:45:49;;;;;;;5.55;3.50;;;;;;;;;;5095426;28;20077;-65
2021/06/28 02:48:16;;;;;;;5.15;3.80;;;;;;;;;;5090703;28;20039;-64
2021/06/28 02:50:42;;;;;;;6.70;3.70;;;;;;;;;;5091603;28;20016;-69
2021/06/28 02:53:08;;;;;;;5.18;3.60;;;;;;;;;;5092705;28;20029;-68
2021/06/28 02:55:34;;;;;;;5.57;3.95;;;;;;;;;;5090734;28;20036;-69
2021/06/28 02:58:00;;;;;;;7.13;4.35;;;;;;;;;;5071330;28;20036;-66
2021/06/28 03:00:27;;;;;;;5.78;4.10;;;;;;;;;;5093527;28;20103;-64
2021/06/28 03:02:53;;;;;;;6.25;4.55;;;;;;;;;;5087949;28;20465;-70
2021/06/28 03:05:19;;;;;;;7.07;4.35;;;;;;;;;;5091281;28;20028;-65
2021/06/28 03:07:45;;;;;;;5.30;4.05;;;;;;;;;;5090558;28;20032;-64
2021/06/28 03:10:13;;;;;;;5.63;4.07;;;;;;;;;;5092244;28;20020;-64
2021/06/28 03:12:39;;;;;;;5.38;4.13;;;;;;;;;;5090317;28;20047;-64
2021/06/28 03:15:08;;;;;;;6.47;4.30;;;;;;;;;;5089523;28;20486;-65
2021/06/28 03:17:34;;;;;;;8.25;5.00;;;;;;;;;;5090920;28;20043;-65
2021/06/28 03:20:00;;;;;;;4.80;4.07;;;;;;;;;;5093873;28;20023;-65
2021/06/28 03:22:26;;;;;;;6.00;4.30;;;;;;;;;;5091020;28;20038;-69
2021/06/28 03:24:52;;;;;;;5.82;4.40;;;;;;;;;;5089778;28;20077;-69
2021/06/28 03:27:18;;;;;;;6.03;4.32;;;;;;;;;;5087710;28;20050;-64
2021/06/28 03:29:46;;;;;;;8.60;4.10;;;;;;;;;;5089791;28;20073;-65
2021/06/28 03:32:12;;;;;;;4.40;3.97;;;;;;;;;;5091835;28;20042;-70
2021/06/28 03:34:39;;;;;;;8.07;4.25;;;;;;;;;;5089241;28;20367;-69
2021/06/28 03:37:05;;;;;;;6.30;4.15;;;;;;;;;;5087769;28;20067;-64
2021/06/28 03:39:31;;;;;;;5.40;4.60;;;;;;;;;;5089331;28;20040;-65
2021/06/28 03:41:58;;;;;;;5.85;4.18;;;;;;;;;;5087974;28;20099;-64
2021/06/28 03:44:24;;;;;;;6.60;4.32;;;;;;;;;;5093249;28;20032;-76
2021/06/28 03:46:50;;;;;;;7.45;4.65;;;;;;;;;;5070664;28;20024;-67
2021/06/28 03:49:16;;;;;;;13.00;5.95;;;;;;;;;;5089670;28;20032;-68
2021/06/28 03:51:44;;;;;;;9.23;4.70;;;;;;;;;;5089562;28;20024;-69
2021/06/28 03:54:11;;;;;;;7.22;4.30;;;;;;;;;;5091699;28;20491;-71
2021/06/28 03:56:37;;;;;;;5.18;4.60;;;;;;;;;;5088948;28;20028;-69
2021/06/28 03:59:03;;;;;;;8.63;4.82;;;;;;;;;;5089329;28;20081;-70
2021/06/28 04:01:29;;;;;;;9.70;4.70;;;;;;;;;;5088323;28;20017;-79
2021/06/28 04:03:55;;;;;;;10.52;5.20;;;;;;;;;;5089875;28;20020;-64
2021/06/28 04:06:23;;;;;;;7.65;5.38;;;;;;;;;;5086618;28;20043;-73
2021/06/28 04:08:49;;;;;;;7.28;5.05;;;;;;;;;;5090374;28;20024;-62
2021/06/28 04:11:17;;;;;;;8.27;4.60;;;;;;;;;;5092432;28;20054;-64
2021/06/28 04:13:43;;;;;;;11.30;4.72;;;;;;;;;;5091951;28;20024;-64
2021/06/28 04:16:09;;;;;;;10.43;5.60;;;;;;;;;;5090697;28;20060;-75
2021/06/28 04:18:36;;;;;;;12.68;5.38;;;;;;;;;;5092278;28;20040;-69
2021/06/28 04:21:02;;;;;;;6.50;4.88;;;;;;;;;;5092217;28;20023;-64
2021/06/28 04:23:28;;;;;;;6.00;4.80;;;;;;;;;;5093088;28;20031;-68
2021/06/28 04:25:54;;;;;;;8.45;6.25;;;;;;;;;;5092464;28;20031;-88
2021/06/28 04:28:20;;;;;;;24.38;6.75;;;;;;;;;;5103004;28;20028;-83
2021/06/28 04:30:46;;;;;;;20.30;6.50;;;;;;;;;;5093810;28;20027;-74
2021/06/28 04:33:12;;;;;;;44.58;8.82;;;;;;;;;;5093991;28;20501;-74
2021/06/28 04:35:39;;;;;;;27.30;7.32;;;;;;;;;;5094805;28;20073;-63
2021/06/28 04:38:05;;;;;;;16.98;6.13;;;;;;;;;;5094184;28;20043;-74
2021/06/28 04:40:32;;;;;;;11.27;6.18;;;;;;;;;;5099320;28;20084;-65
2021/06/28 04:42:58;;;;;;;13.00;5.50;;;;;;;;;;5093710;28;20051;-67
2021/06/28 04:45:25;;;;;;;15.60;5.82;;;;;;;;;;5093326;28;20034;-72
2021/06/28 04:47:51;;;;;;;21.90;8.18;;;;;;;;;;5093760;28;20050;-64
2021/06/28 04:50:19;;;;;;;8.18;5.80;;;;;;;;;;5096066;28;20034;-64
2021/06/28 04:52:45;;;;;;;6.82;5.10;;;;;;;;;;5101446;28;20055;-64
2021/06/28 04:55:13;;;;;;;9.70;5.53;;;;;;;;;;5097397;28;20024;-74
2021/06/28 04:57:39;;;;;;;17.67;7.47;;;;;;;;;;5096091;28;20042;-64
2021/06/28 05:00:06;;;;;;;14.30;7.20;;;;;;;;;;5094357;28;20443;-63
2021/06/28 05:02:32;;;;;;;11.38;6.00;;;;;;;;;;5103012;28;20030;-62
2021/06/28 05:04:58;;;;;;;16.92;7.15;;;;;;;;;;5099283;28;20024;-73
2021/06/28 05:07:24;;;;;;;12.98;6.35;;;;;;;;;;5094418;28;20153;-70
2021/06/28 05:09:50;;;;;;;13.02;6.20;;;;;;;;;;5095055;28;20160;-64
2021/06/28 05:12:17;;;;;;;9.35;6.00;;;;;;;;;;5098379;28;20103;-64
2021/06/28 05:14:44;;;;;;;8.88;5.63;;;;;;;;;;5088730;28;20132;-66
2021/06/28 05:17:10;;;;;;;14.73;6.95;;;;;;;;;;5093219;28;20073;-74
2021/06/28 05:19:36;;;;;;;10.00;5.85;;;;;;;;;;5095342;28;20098;-64
2021/06/28 05:22:03;;;;;;;10.40;5.28;;;;;;;;;;5093714;28;20020;-63
2021/06/28 05:24:30;;;;;;;11.38;5.80;;;;;;;;;;5093906;28;20024;-65
2021/06/28 05:26:56;;;;;;;9.55;5.18;;;;;;;;;;5093550;28;20026;-73
2021/06/28 05:29:22;;;;;;;11.27;5.90;;;;;;;;;;5094884;28;20114;-68
2021/06/28 05:31:48;;;;;;;16.33;6.07;;;;;;;;;;5092088;28;20021;-70
2021/06/28 05:34:15;;;;;;;13.57;5.85;;;;;;;;;;5088018;28;20028;-76
2021/06/28 05:36:48;;;;;;;11.75;5.82;;;;;;;;;;5092331;28;20028;-73
2021/06/28 05:39:14;;;;;;;14.02;5.85;;;;;;;;;;5074216;28;20043;-63
2021/06/28 05:41:40;;;;;;;12.63;5.70;;;;;;;;;;5094342;28;20028;-72
2021/06/28 05:44:06;;;;;;;10.15;5.60;;;;;;;;;;5093315;28;20035;-64
2021/06/28 05:46:32;;;;;;;6.63;5.18;;;;;;;;;;5088447;28;20035;-70
2021/06/28 05:48:59;;;;;;;11.02;5.38;;;;;;;;;;5093926;28;20145;-71
2021/06/28 05:51:25;;;;;;;11.90;5.65;;;;;;;;;;5093721;28;20077;-73
2021/06/28 05:53:51;;;;;;;8.65;4.97;;;;;;;;;;5091774;28;20016;-73
2021/06/28 05:56:17;;;;;;;8.75;5.25;;;;;;;;;;5086632;28;20040;-66
2021/06/28 05:58:43;;;;;;;6.28;4.97;;;;;;;;;;5092586;28;20043;-73
2021/06/28 06:01:10;;;;;;;16.75;6.00;;;;;;;;;;5092816;28;20032;-71
2021/06/28 06:03:36;;;;;;;16.85;6.28;;;;;;;;;;5070434;28;20110;-63
2021/06/28 06:06:02;;;;;;;12.00;4.85;;;;;;;;;;5086759;28;20037;-64
2021/06/28 06:08:28;;;;;;;16.92;5.97;;;;;;;;;;5073039;28;20035;-63
2021/06/28 06:10:57;;;;;;;11.32;5.45;;;;;;;;;;5078180;28;20017;-75
2021/06/28 06:13:23;;;;;;;12.10;5.30;;;;;;;;;;5081650;28;20032;-82
2021/06/28 06:15:50;;;;;;;16.88;6.40;;;;;;;;;;5057363;28;20024;-87
2021/06/28 06:18:16;;;;;;;41.92;7.20;;;;;;;;;;5072755;28;20040;-76
2021/06/28 06:20:43;;;;;;;11.68;5.20;;;;;;;;;;5070472;28;20020;-75
2021/06/28 06:23:10;;;;;;;11.57;5.28;;;;;;;;;;5058776;28;20074;-75
2021/06/28 06:25:36;;;;;;;13.98;5.95;;;;;;;;;;5072429;28;20062;-76
2021/06/28 06:28:02;;;;;;;11.10;6.22;;;;;;;;;;5079027;28;20024;-79
2021/06/28 06:30:28;;;;;;;8.98;4.93;;;;;;;;;;5074337;28;20024;-72
2021/06/28 06:32:54;;;;;;;6.43;4.95;;;;;;;;;;5079012;28;20051;-68
2021/06/28 06:35:21;;;;;;;11.02;5.30;;;;;;;;;;5070513;28;20025;-64
2021/06/28 06:37:47;;;;;;;10.63;5.40;;;;;;;;;;5066090;28;20044;-72
2021/06/28 06:40:14;;;;;;;12.30;5.70;;;;;;;;;;5068443;28;20028;-76
2021/06/28 06:42:40;;;;;;;16.27;6.60;;;;;;;;;;5068071;28;20108;-77
2021/06/28 06:45:07;;;;;;;5.85;4.30;;;;;;;;;;5069988;28;20932;-74
2021/06/28 06:47:33;;;;;;;7.63;3.90;;;;;;;;;;5070822;28;20033;-77
2021/06/28 06:49:59;;;;;;;24.42;4.88;;;;;;;;;;5075918;28;20021;-73
2021/06/28 06:52:26;;;;;;;9.05;3.90;;;;;;;;;;5076468;28;20031;-76
2021/06/28 06:54:52;;;;;;;7.03;4.00;;;;;;;;;;5075779;28;20028;-74
2021/06/28 06:57:18;;;;;;;6.53;3.80;;;;;;;;;;5073144;28;20039;-73
2021/06/28 06:59:44;;;;;;;9.38;3.67;;;;;;;;;;5068619;28;20021;-73
2021/06/28 07:02:10;;;;;;;9.77;4.55;;;;;;;;;;5072148;28;20068;-75
2021/06/28 07:04:36;;;;;;;6.30;3.63;;;;;;;;;;5072372;28;20557;-75
2021/06/28 07:07:03;;;;;;;6.80;3.47;;;;;;;;;;5058930;28;20040;-78
2021/06/28 07:09:29;;;;;;;4.40;3.50;;;;;;;;;;5071573;28;20024;-74
2021/06/28 07:11:56;;;;;;;5.40;3.50;;;;;;;;;;5072008;28;20024;-74
2021/06/28 07:14:24;;;;;;;4.82;3.60;;;;;;;;;;5069614;28;20035;-73
2021/06/28 07:16:50;;;;;;;3.92;3.30;;;;;;;;;;5070320;28;20012;-71
2021/06/28 07:19:17;;;;;;;6.80;3.63;;;;;;;;;;5070172;28;20065;-79
2021/06/28 07:21:43;;;;;;;6.70;3.80;;;;;;;;;;5065725;28;20016;-77
2021/06/28 07:24:09;;;;;;;3.45;3.15;;;;;;;;;;5069575;28;20116;-80
2021/06/28 07:26:35;;;;;;;5.10;3.70;;;;;;;;;;5070333;28;20025;-79
2021/06/28 07:29:22;;;;;;;5.30;3.28;;;;;;;;;;5069148;28;20028;-72
2021/06/28 07:31:49;;;;;;;5.13;3.55;;;;;;;;;;5048513;28;20621;-72
2021/06/28 07:34:17;;;;;;;6.15;3.00;;;;;;;;;;5068899;28;20481;-75
2021/06/28 07:36:43;;;;;;;7.03;3.65;;;;;;;;;;5067752;28;20028;-77
2021/06/28 07:39:09;;;;;;;6.97;3.20;;;;;;;;;;5070503;28;20080;-76
2021/06/28 07:41:35;;;;;;;4.80;3.30;;;;;;;;;;5067966;28;20028;-75
2021/06/28 07:44:03;;;;;;;80.95;7.38;;;;;;;;;;5064337;28;20036;-91
2021/06/28 07:46:29;;;;;;;6.25;3.15;;;;;;;;;;5070270;28;20021;-79
2021/06/28 07:48:55;;;;;;;7.65;3.40;;;;;;;;;;5070398;28;20493;-79
2021/06/28 07:51:22;;;;;;;22.60;4.65;;;;;;;;;;5069887;28;20036;-84
2021/06/28 07:53:48;;;;;;;8.95;3.90;;;;;;;;;;5054463;28;21856;-69
2021/06/28 07:56:14;;;;;;;3.10;2.80;;;;;;;;;;5070571;28;20024;-71
2021/06/28 07:58:44;;;;;;;8.75;3.05;;;;;;;;;;5069512;28;20478;-67
2021/06/28 08:01:11;;;;;;;10.20;3.65;;;;;;;;;;5070600;28;20036;-68
2021/06/28 08:03:43;;;;;;;28.15;4.55;;;;;;;;;;5070429;28;20047;-68
2021/06/28 08:06:10;;;;;;;5.10;3.05;;;;;;;;;;5064980;28;20135;-69
2021/06/28 08:08:36;;;;;;;4.95;3.40;;;;;;;;;;5063059;28;20051;-71
2021/06/28 08:11:03;;;;;;;5.28;3.88;;;;;;;;;;5080201;28;20052;-69
2021/06/28 08:13:29;;;;;;;4.10;3.40;;;;;;;;;;5064526;28;20021;-73
2021/06/28 08:15:55;;;;;;;6.45;3.53;;;;;;;;;;5051382;28;20111;-77
2021/06/28 08:18:21;;;;;;;7.50;3.60;;;;;;;;;;5052487;28;20055;-78
2021/06/28 08:20:47;;;;;;;5.00;3.30;;;;;;;;;;5047630;28;20437;-81
2021/06/28 08:23:13;;;;;;;7.72;3.78;;;;;;;;;;5054837;28;20029;-75
2021/06/28 08:25:40;;;;;;;9.95;3.72;;;;;;;;;;5069185;28;20082;-75
2021/06/28 08:28:07;;;;;;;5.20;3.85;;;;;;;;;;5071052;28;20029;-77
2021/06/28 08:30:34;;;;;;;8.85;4.40;;;;;;;;;;5049921;28;20020;-71
2021/06/28 08:33:00;;;;;;;5.75;3.58;;;;;;;;;;5069653;28;20516;-71
2021/06/28 08:35:26;;;;;;;4.05;3.60;;;;;;;;;;5069767;28;20035;-76
2021/06/28 08:37:52;;;;;;;17.63;4.05;;;;;;;;;;5067517;28;20433;-74
2021/06/28 08:40:18;;;;;;;6.72;3.88;;;;;;;;;;5069245;28;20052;-75
2021/06/28 08:42:45;;;;;;;6.18;3.88;;;;;;;;;;5068186;28;20028;-71
2021/06/28 08:45:11;;;;;;;4.85;3.83;;;;;;;;;;5071499;28;20029;-74
2021/06/28 08:47:37;;;;;;;6.93;3.70;;;;;;;;;;5068562;28;20036;-66
2021/06/28 08:50:04;;;;;;;5.97;3.60;;;;;;;;;;5071014;28;20013;-68
2021/06/28 08:52:36;;;;;;;4.13;3.40;;;;;;;;;;5070833;28;20025;-69
2021/06/28 08:55:02;;;;;;;6.68;3.90;;;;;;;;;;5062777;28;20017;-76
2021/06/28 08:57:28;;;;;;;5.65;3.63;;;;;;;;;;5069466;28;20020;-81
2021/06/28 08:59:55;;;;;;;5.68;3.75;;;;;;;;;;5053236;28;20246;-80
2021/06/28 09:02:21;;;;;;;5.95;3.80;;;;;;;;;;5069813;28;20029;-77
2021/06/28 09:05:06;;;;;;;7.20;3.80;;;;;;;;;;5066653;28;20112;-80
2021/06/28 09:07:32;;;;;;;27.55;4.75;;;;;;;;;;5087350;28;20131;-72
2021/06/28 09:09:58;;;;;;;5.53;3.40;;;;;;;;;;5089103;28;20382;-86
2021/06/28 09:12:24;;;;;;;6.57;3.67;;;;;;;;;;5094494;28;20028;-74
2021/06/28 09:14:50;;;;;;;6.78;3.75;;;;;;;;;;5093326;28;20084;-78
2021/06/28 09:17:36;;;;;;;8.00;3.65;;;;;;;;;;5094401;28;20029;-85
2021/06/28 09:20:14;;;;;;;6.40;3.90;;;;;;;;;;5085141;28;20101;-80
2021/06/28 09:22:41;;;;;;;7.65;3.90;;;;;;;;;;5091456;28;20050;-73
2021/06/28 09:25:08;;;;;;;4.93;3.30;;;;;;;;;;5093856;28;20043;-74
2021/06/28 09:27:44;;;;;;;7.50;3.70;;;;;;;;;;5094289;28;20130;-73
2021/06/28 09:30:19;;;;;;;6.82;3.85;;;;;;;;;;5093719;28;20024;-85
2021/06/28 09:32:52;;;;;;;4.38;3.20;;;;;;;;;;5094232;28;20023;-79
2021/06/28 09:35:18;;;;;;;;;;;;;;;;;;5091896;28;20028;-75
2021/06/28 09:37:44;;;;;;;7.53;3.53;;;;;;;;;;5094269;28;19919;-77
2021/06/28 09:40:11;;;;;;;4.72;3.40;;;;;;;;;;5093687;28;20024;-73
2021/06/28 09:42:37;;;;;;;5.50;3.78;;;;;;;;;;5093549;28;20016;-74
2021/06/28 09:45:03;;;;;;;7.43;4.05;;;;;;;;;;5084398;28;20012;-75
2021/06/28 09:47:33;;;;;;;67.90;7.82;;;;;;;;;;5089188;28;20035;-74
2021/06/28 09:50:02;;;;;;;21.75;4.35;;;;;;;;;;5088416;28;20028;-74
2021/06/28 09:52:29;;;;;;;29.58;5.47;;;;;;;;;;5091581;28;20024;-77
2021/06/28 09:54:55;;;;;;;14.13;3.72;;;;;;;;;;5091967;28;20055;-74
2021/06/28 09:57:22;;;;;;;5.05;3.40;;;;;;;;;;5087576;28;20385;-77
2021/06/28 09:59:48;;;;;;;13.00;3.80;;;;;;;;;;5091640;28;20043;-75
2021/06/28 10:02:29;;;;;;;6.57;3.53;;;;;;;;;;5088713;28;20016;-77
2021/06/28 10:05:11;;;;;;;7.18;3.90;;;;;;;;;;5086176;28;20020;-74
2021/06/28 10:07:39;;;;;;;6.45;3.35;;;;;;;;;;5091388;28;20125;-79
2021/06/28 10:10:09;;;;;;;8.23;3.58;;;;;;;;;;5092839;28;20016;-78
2021/06/28 10:12:36;;;;;;;22.45;4.20;;;;;;;;;;5092334;28;20525;-82
2021/06/28 10:15:02;;;;;;;8.77;3.58;;;;;;;;;;5088883;28;20146;-80
2021/06/28 10:17:29;;;;;;;5.32;3.40;;;;;;;;;;5092849;28;20054;-80
2021/06/28 10:19:55;;;;;;;8.40;3.70;;;;;;;;;;5088904;28;20051;-75
2021/06/28 10:22:21;;;;;;;5.53;3.50;;;;;;;;;;5092453;28;20016;-75
2021/06/28 10:24:48;;;;;;;6.80;3.28;;;;;;;;;;5092192;28;20055;-74
2021/06/28 10:27:15;;;;;;;8.02;3.50;;;;;;;;;;5092573;28;20385;-74
2021/06/28 10:29:43;;;;;;;6.57;3.50;;;;;;;;;;5090736;28;20381;-70
2021/06/28 10:32:10;;;;;;;6.53;3.83;;;;;;;;;;5092387;28;20024;-72
2021/06/28 10:34:38;;;;;;;8.20;3.67;;;;;;;;;;5090774;28;20024;-73
2021/06/28 10:37:24;;;;;;;5.78;3.33;;;;;;;;;;5087602;28;20020;-84
2021/06/28 10:39:57;;;;;;;20.90;4.05;;;;;;;;;;5093328;28;20074;-83
2021/06/28 10:42:40;;;;;;;4.47;3.55;;;;;;;;;;5093481;28;20101;-84
2021/06/28 10:45:08;;;;;;;7.70;3.70;;;;;;;;;;5090049;28;20032;-74
2021/06/28 10:47:34;;;;;;;4.95;3.50;;;;;;;;;;5087277;28;20028;-83
2021/06/28 10:50:00;;;;;;;6.85;3.25;;;;;;;;;;5089812;28;20035;-78
2021/06/28 10:52:46;;;;;;;7.72;3.80;;;;;;;;;;5087023;28;20039;-85
2021/06/28 10:55:21;;;;;;;5.25;3.67;;;;;;;;;;5091627;28;20038;-81
2021/06/28 10:57:49;;;;;;;5.32;3.42;;;;;;;;;;5090378;28;20028;-84
2021/06/28 11:00:16;;;;;;;8.93;3.60;;;;;;;;;;5093083;28;20067;-82
2021/06/28 11:02:43;;;;;;;9.38;3.60;;;;;;;;;;5090592;28;20024;-71
2021/06/28 11:05:10;;;;;;;5.28;3.42;;;;;;;;;;5091880;28;20169;-80
2021/06/28 11:07:45;;;;;;;5.70;3.47;;;;;;;;;;5093039;28;20052;-79
2021/06/28 11:10:15;;;;;;;5.05;3.42;;;;;;;;;;5070810;28;20032;-83
2021/06/28 11:12:42;;;;;;;5.25;3.33;;;;;;;;;;5091595;28;20027;-79
2021/06/28 11:15:09;;;;;;;7.95;3.60;;;;;;;;;;5074767;28;20062;-76
2021/06/28 11:17:38;;;;;;;5.30;3.63;;;;;;;;;;5073536;28;20478;-75
2021/06/28 11:20:05;;;;;;;6.63;3.25;;;;;;;;;;5091153;28;20027;-74
2021/06/28 11:22:33;;;;;;;11.90;3.70;;;;;;;;;;5090261;28;20032;-81
2021/06/28 11:25:08;;;;;;;5.80;3.47;;;;;;;;;;5079661;28;20056;-81
2021/06/28 11:28:06;;;;;;;4.38;3.22;;;;;;;;;;5092020;28;20077;-83
2021/06/28 11:30:37;;;;;;;4.30;3.25;;;;;;;;;;5069868;28;20058;-70
2021/06/28 11:33:08;;;;;;;9.68;3.60;;;;;;;;;;5089701;28;20056;-73
2021/06/28 11:35:34;;;;;;;10.35;3.72;;;;;;;;;;5095235;28;20420;-75
2021/06/28 11:38:19;;;;;;;9.32;3.20;;;;;;;;;;5095995;28;20040;-74
2021/06/28 11:40:47;;;;;;;5.82;3.60;;;;;;;;;;5089604;28;20036;-82
2021/06/28 11:43:13;;;;;;;11.88;3.25;;;;;;;;;;5091865;28;20469;-77
2021/06/28 11:45:46;;;;;;;3.85;3.45;;;;;;;;;;5073278;28;20035;-82
2021/06/28 11:48:30;;;;;;;8.43;3.83;;;;;;;;;;5069191;28;20028;-77
2021/06/28 11:50:57;;;;;;;4.38;3.17;;;;;;;;;;5085372;28;20034;-74
2021/06/28 11:53:23;;;;;;;5.60;3.40;;;;;;;;;;5089998;28;20039;-70
2021/06/28 11:55:49;;;;;;;5.85;3.33;;;;;;;;;;5069616;28;20413;-67
2021/06/28 11:58:16;;;;;;;6.38;3.50;;;;;;;;;;5091380;28;20126;-74
2021/06/28 12:00:43;;;;;;;11.00;3.25;;;;;;;;;;5090898;28;20023;-82
2021/06/28 12:03:13;;;;;;;8.73;3.50;;;;;;;;;;5067641;28;20042;-81
2021/06/28 12:05:40;;;;;;;4.85;3.28;;;;;;;;;;5090466;28;20056;-81
2021/06/28 12:08:06;;;;;;;7.50;3.22;;;;;;;;;;5094741;28;20063;-76
2021/06/28 12:10:32;;;;;;;9.13;3.50;;;;;;;;;;5090200;28;20055;-79
2021/06/28 12:12:59;;;;;;;6.57;3.15;;;;;;;;;;5072244;28;20153;-74
2021/06/28 12:15:29;;;;;;;7.20;3.17;;;;;;;;;;5093435;28;20031;-76
2021/06/28 12:17:55;;;;;;;9.70;3.80;;;;;;;;;;5091666;28;20043;-81
2021/06/28 12:20:22;;;;;;;8.18;3.30;;;;;;;;;;5091847;28;20020;-76
2021/06/28 12:22:50;;;;;;;5.00;3.15;;;;;;;;;;5090553;28;20123;-88
2021/06/28 12:25:17;;;;;;;6.07;3.10;;;;;;;;;;5071957;28;20159;-75
2021/06/28 12:27:44;;;;;;;7.20;3.38;;;;;;;;;;5085384;28;20136;-75
2021/06/28 12:30:12;;;;;;;8.02;3.40;;;;;;;;;;5071626;28;20103;-83
2021/06/28 12:32:46;;;;;;;6.18;3.22;;;;;;;;;;5075489;28;20024;-78
2021/06/28 12:35:13;;;;;;;3.60;3.03;;;;;;;;;;5092902;28;20019;-80
2021/06/28 12:37:47;;;;;;;4.63;2.83;;;;;;;;;;5088808;28;20040;-74
2021/06/28 12:40:41;;;;;;;4.25;3.20;;;;;;;;;;5087420;28;20012;-82
2021/06/28 12:43:08;;;;;;;5.10;3.28;;;;;;;;;;5088684;28;20036;-72
2021/06/28 12:45:34;;;;;;;10.13;3.60;;;;;;;;;;5090944;28;20031;-75
2021/06/28 12:48:01;;;;;;;5.53;3.17;;;;;;;;;;5090130;28;20032;-69
2021/06/28 12:50:28;;;;;;;17.75;4.50;;;;;;;;;;5094305;28;20039;-75
2021/06/28 12:52:55;;;;;;;4.22;3.03;;;;;;;;;;5094925;28;20024;-70
2021/06/28 12:55:22;;;;;;;8.98;3.33;;;;;;;;;;5095664;28;20634;-72
2021/06/28 12:58:09;;;;;;;9.75;3.40;;;;;;;;;;5092158;28;20032;-71
2021/06/28 13:00:37;;;;;;;5.63;2.95;;;;;;;;;;5095056;28;20047;-69
2021/06/28 13:03:05;;;;;;;35.78;4.80;;;;;;;;;;5098388;28;20089;-72
2021/06/28 13:05:31;;;;;;;24.00;3.92;;;;;;;;;;5094017;28;20054;-73
2021/06/28 13:08:15;;;;;;;15.02;3.90;;;;;;;;;;5094548;28;20035;-73
2021/06/28 13:10:42;;;;;;;5.07;3.13;;;;;;;;;;5098059;28;20047;-70
2021/06/28 13:13:19;;;;;;;12.88;3.65;;;;;;;;;;5093592;28;20032;-74
2021/06/28 13:16:03;;;;;;;5.93;3.35;;;;;;;;;;5090968;28;20024;-74
2021/06/28 13:18:29;;;;;;;15.00;3.60;;;;;;;;;;5094395;28;20055;-68
2021/06/28 13:20:55;;;;;;;6.47;3.30;;;;;;;;;;5095769;28;20099;-69
2021/06/28 13:23:22;;;;;;;9.90;3.60;;;;;;;;;;5093158;28;20028;-73
2021/06/28 13:25:48;;;;;;;4.90;3.22;;;;;;;;;;5091206;28;20047;-72
2021/06/28 13:28:14;;;;;;;4.65;3.20;;;;;;;;;;5093499;28;20099;-74
2021/06/28 13:30:41;;;;;;;5.47;3.78;;;;;;;;;;5096675;28;20381;-73
2021/06/28 13:33:08;;;;;;;5.57;3.17;;;;;;;;;;5094717;28;20019;-74
2021/06/28 13:35:36;;;;;;;5.07;3.47;;;;;;;;;;5093628;28;20457;-72
2021/06/28 13:38:09;;;;;;;8.90;3.03;;;;;;;;;;5090016;28;20036;-72
2021/06/28 13:40:36;;;;;;;25.95;4.20;;;;;;;;;;5093615;28;20016;-73
2021/06/28 13:43:03;;;;;;;10.63;3.72;;;;;;;;;;5094272;28;20024;-74
2021/06/28 13:45:38;;;;;;;6.80;3.20;;;;;;;;;;5093230;28;20032;-73
2021/06/28 13:48:08;;;;;;;7.57;3.35;;;;;;;;;;5093404;28;20028;-72
2021/06/28 13:50:36;;;;;;;5.43;3.25;;;;;;;;;;5093379;28;20110;-70
2021/06/28 13:53:08;;;;;;;9.70;3.75;;;;;;;;;;5100048;28;20020;-74
2021/06/28 13:55:35;;;;;;;10.77;3.35;;;;;;;;;;5091735;28;20031;-68
2021/06/28 13:58:06;;;;;;;6.57;3.42;;;;;;;;;;5091938;28;20036;-73
2021/06/28 14:00:35;;;;;;;11.27;3.33;;;;;;;;;;5093209;28;20499;-71
2021/06/28 14:03:01;;;;;;;7.82;3.30;;;;;;;;;;5091780;28;20062;-70
2021/06/28 14:05:27;;;;;;;12.25;3.63;;;;;;;;;;5104692;28;20024;-74
2021/06/28 14:07:56;;;;;;;4.30;2.85;;;;;;;;;;5100937;28;20605;-70
2021/06/28 14:10:22;;;;;;;9.10;3.30;;;;;;;;;;5097493;28;20030;-68
2021/06/28 14:12:48;;;;;;;7.35;3.33;;;;;;;;;;5128518;23;20052;-67
2021/06/28 14:15:18;;;;;;;21.40;3.55;;;;;;;;;;5046959;28;20029;-67
2021/06/28 14:17:44;;;;;;;6.85;3.20;;;;;;;;;;5048165;28;20060;-68
2021/06/28 14:20:14;;;;;;;11.80;3.97;;;;;;;;;;5049214;28;20025;-65
2021/06/28 14:22:41;;;;;;;8.55;3.65;;;;;;;;;;5050767;28;20025;-68
2021/06/28 14:25:08;;;;;;;8.65;3.38;;;;;;;;;;5052971;28;20498;-66
2021/06/28 14:27:34;;;;;;;6.35;3.10;;;;;;;;;;5051543;28;20025;-68
2021/06/28 14:30:02;;;;;;;5.13;3.03;;;;;;;;;;5050647;28;20076;-66
2021/06/28 14:32:29;;;;;;;5.90;3.47;;;;;;;;;;5050227;28;20044;-65
2021/06/28 14:34:55;;;;;;;5.55;3.33;;;;;;;;;;5052033;28;20029;-62
2021/06/28 14:37:21;;;;;;;6.68;3.28;;;;;;;;;;5052348;28;20045;-65
2021/06/28 14:39:47;;;;;;;8.23;3.70;;;;;;;;;;5052386;28;20096;-68
2021/06/28 14:42:13;;;;;;;8.95;3.85;;;;;;;;;;5053296;28;20021;-61
2021/06/28 14:44:39;;;;;;;11.02;3.13;;;;;;;;;;5051353;28;20095;-65